createdAt,value
2018-07-11T00:00:22.097Z,99.50
2018-07-11T00:02:50.251Z,99.40
2018-07-11T00:05:18.434Z,99.40
2018-07-11T00:07:46.576Z,99.50
2018-07-11T00:10:14.727Z,99.40
2018-07-11T00:12:42.902Z,99.60
2018-07-11T00:15:11.016Z,99.80
2018-07-11T00:17:39.190Z,99.90
2018-07-11T00:20:07.347Z,99.90
2018-07-11T00:22:35.753Z,99.90
2018-07-11T00:25:03.904Z,99.90
2018-07-11T00:27:32.091Z,99.90
2018-07-11T00:30:00.233Z,99.90
2018-07-11T00:32:28.364Z,99.90
2018-07-11T00:34:56.518Z,99.90
2018-07-11T00:37:24.803Z,99.90
2018-07-11T00:39:52.798Z,99.90
2018-07-11T00:42:20.961Z,99.90
2018-07-11T00:44:49.143Z,99.90
2018-07-11T00:47:17.377Z,99.90
2018-07-11T00:49:45.524Z,99.90
2018-07-11T00:52:14.353Z,99.90
2018-07-11T00:54:42.514Z,99.90
2018-07-11T00:57:10.665Z,99.90
2018-07-11T00:59:41.209Z,99.90
2018-07-11T01:02:09.341Z,99.90
2018-07-11T01:04:37.533Z,99.90
2018-07-11T01:07:06.954Z,99.90
2018-07-11T01:09:41.917Z,99.90
2018-07-11T01:12:10.093Z,99.90
2018-07-11T01:14:38.244Z,99.90
2018-07-11T01:17:12.610Z,99.90
2018-07-11T01:19:40.746Z,99.90
2018-07-11T01:22:08.919Z,99.90
2018-07-11T01:24:37.095Z,99.90
2018-07-11T01:27:05.265Z,99.90
2018-07-11T01:29:33.394Z,99.90
2018-07-11T01:32:01.506Z,99.90
2018-07-11T01:34:29.629Z,99.90
2018-07-11T01:36:57.786Z,99.90
2018-07-11T01:39:25.941Z,99.90
2018-07-11T01:41:54.059Z,99.90
2018-07-11T01:44:22.179Z,99.90
2018-07-11T01:46:51.571Z,99.90
2018-07-11T01:49:19.728Z,99.90
2018-07-11T01:51:59.181Z,99.90
2018-07-11T01:54:28.259Z,99.90
2018-07-11T01:56:56.514Z,99.90
2018-07-11T01:59:26.740Z,99.90
2018-07-11T02:01:54.886Z,99.90
2018-07-11T02:04:24.959Z,99.90
2018-07-11T02:06:53.111Z,99.90
2018-07-11T02:09:21.271Z,99.90
2018-07-11T02:11:49.410Z,99.90
2018-07-11T02:14:17.817Z,99.90
2018-07-11T02:16:45.964Z,99.90
2018-07-11T02:21:49.533Z,99.90
2018-07-11T02:24:17.687Z,99.90
2018-07-11T02:26:45.854Z,99.90
2018-07-11T02:29:14.030Z,99.90
2018-07-11T02:31:42.157Z,99.90
2018-07-11T02:34:10.280Z,99.90
2018-07-11T02:36:38.397Z,99.90
2018-07-11T02:39:06.560Z,99.90
2018-07-11T02:41:34.669Z,99.90
2018-07-11T02:44:02.805Z,99.90
2018-07-11T02:46:36.742Z,99.90
2018-07-11T02:49:04.995Z,99.90
2018-07-11T02:51:33.178Z,99.90
2018-07-11T02:54:01.343Z,99.90
2018-07-11T02:56:29.460Z,99.90
2018-07-11T02:58:57.626Z,99.90
2018-07-11T03:01:25.753Z,99.90
2018-07-11T03:03:53.888Z,99.90
2018-07-11T03:06:22.028Z,99.90
2018-07-11T03:08:50.175Z,99.90
2018-07-11T03:11:18.337Z,99.90
2018-07-11T03:13:46.558Z,99.90
2018-07-11T03:16:14.703Z,99.90
2018-07-11T03:18:42.831Z,99.90
2018-07-11T03:21:10.982Z,99.90
2018-07-11T03:23:39.121Z,99.90
2018-07-11T03:26:07.254Z,99.90
2018-07-11T03:28:35.415Z,99.90
2018-07-11T03:31:03.576Z,99.90
2018-07-11T03:33:31.919Z,99.90
2018-07-11T03:36:00.059Z,99.90
2018-07-11T03:38:28.178Z,99.90
2018-07-11T03:40:56.333Z,99.90
2018-07-11T03:43:24.471Z,99.90
2018-07-11T03:45:52.634Z,99.90
2018-07-11T03:48:20.774Z,99.90
2018-07-11T03:50:48.939Z,99.90
2018-07-11T03:53:17.098Z,99.90
2018-07-11T03:55:45.289Z,99.90
2018-07-11T03:58:13.467Z,99.90
2018-07-11T04:00:41.612Z,99.90
2018-07-11T04:03:09.774Z,99.90
2018-07-11T04:05:37.956Z,99.90
2018-07-11T04:08:06.076Z,99.90
2018-07-11T04:10:34.250Z,99.90
2018-07-11T04:13:02.390Z,99.90
2018-07-11T04:15:30.552Z,99.90
2018-07-11T04:17:58.673Z,99.90
2018-07-11T04:20:26.829Z,99.90
2018-07-11T04:22:54.987Z,99.90
2018-07-11T04:25:23.178Z,99.90
2018-07-11T04:27:51.331Z,99.90
2018-07-11T04:30:19.510Z,99.90
2018-07-11T04:32:47.681Z,99.90
2018-07-11T04:35:15.845Z,99.90
2018-07-11T04:37:44.026Z,99.90
2018-07-11T04:40:12.180Z,99.90
2018-07-11T04:42:40.273Z,99.90
2018-07-11T04:45:08.447Z,99.90
2018-07-11T04:47:36.649Z,99.90
2018-07-11T04:50:04.906Z,99.90
2018-07-11T04:52:37.513Z,99.90
2018-07-11T04:55:05.879Z,99.90
2018-07-11T04:57:34.111Z,99.90
2018-07-11T05:00:02.286Z,99.90
2018-07-11T05:02:30.470Z,99.90
2018-07-11T05:04:58.634Z,99.90
2018-07-11T05:07:26.733Z,99.90
2018-07-11T05:09:56.866Z,99.90
2018-07-11T05:12:24.999Z,99.90
2018-07-11T05:14:53.129Z,99.90
2018-07-11T05:17:21.865Z,99.90
2018-07-11T05:19:50.027Z,99.90
2018-07-11T05:22:18.200Z,99.90
2018-07-11T05:24:46.379Z,99.90
2018-07-11T05:27:15.071Z,99.90
2018-07-11T05:29:43.552Z,99.90
2018-07-11T05:32:11.734Z,99.90
2018-07-11T05:34:39.913Z,99.90
2018-07-11T05:37:08.044Z,99.90
2018-07-11T05:39:36.247Z,99.90
2018-07-11T05:42:04.532Z,99.90
2018-07-11T05:44:32.626Z,99.90
2018-07-11T05:47:07.240Z,99.90
2018-07-11T05:49:35.871Z,99.90
2018-07-11T05:52:04.355Z,99.90
2018-07-11T05:54:33.621Z,99.90
2018-07-11T05:57:02.058Z,99.90
2018-07-11T05:59:30.352Z,99.90
2018-07-11T06:01:58.784Z,99.90
2018-07-11T06:04:26.948Z,99.90
2018-07-11T06:06:55.080Z,99.90
2018-07-11T06:09:23.227Z,99.90
2018-07-11T06:11:51.505Z,99.90
2018-07-11T06:14:19.639Z,99.90
2018-07-11T06:16:47.781Z,99.90
2018-07-11T06:19:15.927Z,99.90
2018-07-11T06:21:45.908Z,99.90
2018-07-11T06:24:14.149Z,99.90
2018-07-11T06:26:42.342Z,99.90
2018-07-11T06:29:10.465Z,99.90
2018-07-11T06:31:38.663Z,99.90
2018-07-11T06:34:06.890Z,99.90
2018-07-11T06:36:35.018Z,99.90
2018-07-11T06:39:03.345Z,99.90
2018-07-11T06:41:31.480Z,99.90
2018-07-11T06:43:59.590Z,99.90
2018-07-11T06:46:27.737Z,99.90
2018-07-11T06:48:56.141Z,99.90
2018-07-11T06:51:24.231Z,99.90
2018-07-11T06:53:52.377Z,99.90
2018-07-11T06:56:20.542Z,99.90
2018-07-11T06:58:48.762Z,99.90
2018-07-11T07:01:16.921Z,99.90
2018-07-11T07:03:45.114Z,99.90
2018-07-11T07:06:13.339Z,99.90
2018-07-11T07:08:41.477Z,99.90
2018-07-11T07:11:09.646Z,99.90
2018-07-11T07:13:37.792Z,99.90
2018-07-11T07:16:05.987Z,99.90
2018-07-11T07:18:35.174Z,99.90
2018-07-11T07:21:03.310Z,99.90
2018-07-11T07:23:31.475Z,99.90
2018-07-11T07:25:59.801Z,99.90
2018-07-11T07:28:27.958Z,99.90
2018-07-11T07:30:56.132Z,99.90
2018-07-11T07:33:24.305Z,99.90
2018-07-11T07:35:52.479Z,99.90
2018-07-11T07:38:20.632Z,99.90
2018-07-11T07:40:48.806Z,99.90
2018-07-11T07:43:16.915Z,99.90
2018-07-11T07:45:45.837Z,99.90
2018-07-11T07:48:14.499Z,99.90
2018-07-11T07:50:42.666Z,99.90
2018-07-11T07:53:10.946Z,99.90
2018-07-11T07:55:39.114Z,99.90
2018-07-11T07:58:07.318Z,99.90
2018-07-11T08:00:36.213Z,99.60
2018-07-11T08:03:04.236Z,99.20
2018-07-11T08:05:32.498Z,99.40
2018-07-11T08:08:00.662Z,99.40
2018-07-11T08:10:28.798Z,99.80
2018-07-11T08:12:56.930Z,99.70
2018-07-11T08:15:25.049Z,99.80
2018-07-11T08:17:53.175Z,99.20
2018-07-11T08:20:21.337Z,99.40
2018-07-11T08:23:32.344Z,99.50
2018-07-11T08:26:11.919Z,99.60
2018-07-11T08:31:28.102Z,99.20
2018-07-11T08:34:17.270Z,99.10
2018-07-11T08:36:56.686Z,99.40
2018-07-11T08:39:47.063Z,99.40
2018-07-11T08:42:27.625Z,99.30
2018-07-11T08:45:03.622Z,99.50
2018-07-11T08:49:48.166Z,99.60
2018-07-11T08:52:39.130Z,99.70
2018-07-11T08:55:18.778Z,99.90
2018-07-11T08:57:58.798Z,99.90
2018-07-11T09:00:44.118Z,99.50
2018-07-11T09:03:20.442Z,98.70
2018-07-11T09:05:59.953Z,98.20
2018-07-11T09:08:46.095Z,98.20
2018-07-11T09:11:40.498Z,98.70
2018-07-11T09:16:21.469Z,98.40
2018-07-11T09:18:59.251Z,98.70
2018-07-11T09:22:10.567Z,98.80
2018-07-11T09:24:43.035Z,98.90
2018-07-11T09:27:11.616Z,99.20
2018-07-11T09:29:40.731Z,99.70
2018-07-11T09:32:09.451Z,99.70
2018-07-11T09:34:37.662Z,99.60
2018-07-11T09:37:05.828Z,99.10
2018-07-11T09:39:33.926Z,98.40
2018-07-11T09:42:02.082Z,98.40
2018-07-11T09:44:30.241Z,97.40
2018-07-11T09:46:59.065Z,96.80
2018-07-11T09:49:27.418Z,97.20
2018-07-11T09:51:56.027Z,96.00
2018-07-11T09:54:24.186Z,96.50
2018-07-11T09:56:52.374Z,96.30
2018-07-11T09:59:20.614Z,95.20
2018-07-11T10:01:48.931Z,90.90
2018-07-11T10:04:17.105Z,90.50
2018-07-11T10:06:45.273Z,90.20
2018-07-11T10:09:13.441Z,89.50
2018-07-11T10:11:41.634Z,90.00
2018-07-11T10:14:09.786Z,89.00
2018-07-11T10:16:37.956Z,86.90
2018-07-11T10:19:06.338Z,86.60
2018-07-11T10:21:35.155Z,86.90
2018-07-11T10:24:03.388Z,88.80
2018-07-11T10:26:31.579Z,88.70
2018-07-11T10:28:59.765Z,88.40
2018-07-11T10:31:28.645Z,89.60
2018-07-11T10:33:56.837Z,88.30
2018-07-11T10:36:25.006Z,87.60
2018-07-11T10:38:53.232Z,88.20
2018-07-11T10:41:21.411Z,86.40
2018-07-11T10:43:49.755Z,84.90
2018-07-11T10:46:17.926Z,84.10
2018-07-11T10:48:46.102Z,82.40
2018-07-11T10:51:14.234Z,83.10
2018-07-11T10:53:42.488Z,84.70
2018-07-11T10:56:10.655Z,84.80
2018-07-11T10:58:38.875Z,83.70
2018-07-11T11:01:07.173Z,82.90
2018-07-11T11:03:35.397Z,84.10
2018-07-11T11:06:03.563Z,83.40
2018-07-11T11:08:32.082Z,83.80
2018-07-11T11:11:00.253Z,85.40
2018-07-11T11:13:28.410Z,85.30
2018-07-11T11:15:56.900Z,85.40
2018-07-11T11:18:25.412Z,84.80
2018-07-11T11:20:54.786Z,83.80
2018-07-11T11:23:22.983Z,82.30
2018-07-11T11:25:51.175Z,83.40
2018-07-11T11:28:19.265Z,83.20
2018-07-11T11:30:47.436Z,82.50
2018-07-11T11:33:15.644Z,83.20
2018-07-11T11:35:43.854Z,84.50
2018-07-11T11:38:11.983Z,84.30
2018-07-11T11:40:40.151Z,83.90
2018-07-11T11:43:08.378Z,85.40
2018-07-11T11:45:36.615Z,85.30
2018-07-11T11:48:04.832Z,86.10
2018-07-11T11:50:33.009Z,83.80
2018-07-11T11:53:01.644Z,83.50
2018-07-11T11:55:29.893Z,83.50
2018-07-11T11:57:58.039Z,82.00
2018-07-11T12:00:26.208Z,80.70
2018-07-11T12:02:54.379Z,80.80
2018-07-11T12:05:22.527Z,80.70
2018-07-11T12:07:50.668Z,82.40
2018-07-11T12:10:18.850Z,81.10
2018-07-11T12:12:47.027Z,80.80
2018-07-11T12:15:16.211Z,82.00
2018-07-11T12:17:44.372Z,82.60
2018-07-11T12:20:12.547Z,81.80
2018-07-11T12:22:40.836Z,81.60
2018-07-11T12:25:09.008Z,83.00
2018-07-11T12:27:37.185Z,83.40
2018-07-11T12:30:05.424Z,83.30
2018-07-11T12:32:33.541Z,82.60
2018-07-11T12:35:01.767Z,79.70
2018-07-11T12:37:29.926Z,79.50
2018-07-11T12:39:58.090Z,78.60
2018-07-11T12:42:26.247Z,78.00
2018-07-11T12:44:54.410Z,78.70
2018-07-11T12:47:28.088Z,78.10
2018-07-11T12:49:56.242Z,76.70
2018-07-11T12:52:24.423Z,78.30
2018-07-11T12:54:52.602Z,79.30
2018-07-11T12:57:20.851Z,81.60
2018-07-11T12:59:49.381Z,83.40
2018-07-11T13:02:17.559Z,83.70
2018-07-11T13:04:45.734Z,82.50
2018-07-11T13:07:13.882Z,82.60
2018-07-11T13:09:42.392Z,82.20
2018-07-11T13:12:10.659Z,82.50
2018-07-11T13:14:38.806Z,82.60
2018-07-11T13:17:06.970Z,82.90
2018-07-11T13:22:25.545Z,82.10
2018-07-11T13:24:53.716Z,80.70
2018-07-11T13:27:21.845Z,79.00
2018-07-11T13:29:49.993Z,79.40
2018-07-11T13:32:18.167Z,77.40
2018-07-11T13:34:46.404Z,77.30
2018-07-11T13:37:14.558Z,79.20
2018-07-11T13:39:42.723Z,80.70
2018-07-11T13:42:11.035Z,80.80
2018-07-11T13:44:39.254Z,77.60
2018-07-11T13:47:12.709Z,80.20
2018-07-11T13:49:40.873Z,81.00
2018-07-11T13:52:09.093Z,78.70
2018-07-11T13:54:37.241Z,76.20
2018-07-11T13:57:05.414Z,77.60
2018-07-11T13:59:33.542Z,78.20
2018-07-11T14:02:01.719Z,78.00
2018-07-11T14:04:29.889Z,76.80
2018-07-11T14:06:58.427Z,77.50
2018-07-11T14:09:26.576Z,77.10
2018-07-11T14:11:54.718Z,75.80
2018-07-11T14:14:22.888Z,77.10
2018-07-11T14:16:51.097Z,76.90
2018-07-11T14:19:19.285Z,76.50
2018-07-11T14:21:47.557Z,76.20
2018-07-11T14:24:15.854Z,75.30
2018-07-11T14:26:44.613Z,75.20
2018-07-11T14:29:12.800Z,75.70
2018-07-11T14:31:40.960Z,74.30
2018-07-11T14:34:09.683Z,74.70
2018-07-11T14:36:37.898Z,74.10
2018-07-11T14:39:07.555Z,75.70
2018-07-11T14:41:35.841Z,74.60
2018-07-11T14:44:03.981Z,74.90
2018-07-11T14:46:33.313Z,75.10
2018-07-11T14:49:01.487Z,76.60
2018-07-11T14:51:29.698Z,75.50
2018-07-11T14:53:58.034Z,76.00
2018-07-11T14:56:26.207Z,76.60
2018-07-11T14:58:56.229Z,75.30
2018-07-11T15:01:24.854Z,74.80
2018-07-11T15:03:53.267Z,74.40
2018-07-11T15:06:22.022Z,73.40
2018-07-11T15:08:50.929Z,74.50
2018-07-11T15:11:20.500Z,74.60
2018-07-11T15:13:48.645Z,75.40
2018-07-11T15:16:16.847Z,72.20
2018-07-11T15:18:46.019Z,71.30
2018-07-11T15:21:14.245Z,71.60
2018-07-11T15:23:42.437Z,70.30
2018-07-11T15:26:10.580Z,70.10
2018-07-11T15:28:39.161Z,69.60
2018-07-11T15:31:07.516Z,68.90
2018-07-11T15:33:35.751Z,69.10
2018-07-11T15:36:03.865Z,69.60
2018-07-11T15:38:32.022Z,71.20
2018-07-11T15:41:00.746Z,70.60
2018-07-11T15:43:29.406Z,70.00
2018-07-11T15:45:58.164Z,70.10
2018-07-11T15:48:26.352Z,71.10
2018-07-11T15:50:55.163Z,71.40
2018-07-11T15:53:23.578Z,71.60
2018-07-11T15:55:52.501Z,71.00
2018-07-11T15:58:21.412Z,71.20
2018-07-11T16:00:49.542Z,70.60
2018-07-11T16:03:18.828Z,71.10
2018-07-11T16:05:47.550Z,71.50
2018-07-11T16:08:17.593Z,71.10
2018-07-11T16:10:48.311Z,70.50
2018-07-11T16:13:16.441Z,70.60
2018-07-11T16:15:45.139Z,70.30
2018-07-11T16:18:13.440Z,70.80
2018-07-11T16:20:41.639Z,71.90
2018-07-11T16:23:10.321Z,71.00
2018-07-11T16:25:40.448Z,69.80
2018-07-11T16:28:09.175Z,69.40
2018-07-11T16:30:37.413Z,69.70
2018-07-11T16:33:05.741Z,69.00
2018-07-11T16:35:33.897Z,68.30
2018-07-11T16:38:02.861Z,68.50
2018-07-11T16:40:31.769Z,68.50
2018-07-11T16:43:00.366Z,67.80
2018-07-11T16:45:29.241Z,68.40
2018-07-11T16:47:57.922Z,69.50
2018-07-11T16:50:26.735Z,68.30
2018-07-11T16:52:55.533Z,68.90
2018-07-11T16:55:23.798Z,68.90
2018-07-11T16:57:53.295Z,68.70
2018-07-11T17:00:28.646Z,68.60
2018-07-11T17:03:09.916Z,68.50
2018-07-11T17:05:53.062Z,68.80
2018-07-11T17:08:28.278Z,69.80
2018-07-11T17:11:00.882Z,70.30
2018-07-11T17:13:29.073Z,70.00
2018-07-11T17:15:57.428Z,70.50
2018-07-11T17:18:35.537Z,69.60
2018-07-11T17:21:07.092Z,69.80
2018-07-11T17:23:35.504Z,70.50
2018-07-11T17:26:03.706Z,70.50
2018-07-11T17:28:31.952Z,70.60
2018-07-11T17:31:00.710Z,71.80
2018-07-11T17:33:28.949Z,72.00
2018-07-11T17:35:57.155Z,71.80
2018-07-11T17:38:29.126Z,72.60
2018-07-11T17:40:57.300Z,73.30
2018-07-11T17:43:33.141Z,73.00
2018-07-11T17:46:06.008Z,73.70
2018-07-11T17:48:42.951Z,73.80
2018-07-11T17:51:31.394Z,73.90
2018-07-11T17:54:00.840Z,73.80
2018-07-11T17:56:55.071Z,74.50
2018-07-11T17:59:32.693Z,74.60
2018-07-11T18:02:00.919Z,74.40
2018-07-11T18:06:43.427Z,74.50
2018-07-11T18:09:14.094Z,73.90
2018-07-11T18:11:57.394Z,74.80
2018-07-11T18:14:34.213Z,74.70
2018-07-11T18:17:11.674Z,74.70
2018-07-11T18:19:50.538Z,75.30
2018-07-11T18:22:28.215Z,75.00
2018-07-11T18:25:06.152Z,74.70
2018-07-11T18:27:45.725Z,75.10
2018-07-11T18:30:19.829Z,75.50
2018-07-11T18:33:06.888Z,75.40
2018-07-11T18:35:46.393Z,75.40
2018-07-11T18:38:20.206Z,75.80
2018-07-11T18:41:08.846Z,76.00
2018-07-11T18:44:23.042Z,76.60
2018-07-11T18:47:07.619Z,76.70
2018-07-11T18:49:42.694Z,77.00
2018-07-11T18:52:30.941Z,76.90
2018-07-11T18:55:27.674Z,77.50
2018-07-11T18:58:08.791Z,77.60
2018-07-11T19:00:47.576Z,78.30
2018-07-11T19:04:23.609Z,78.60
2018-07-11T19:07:10.659Z,78.80
2018-07-11T19:09:44.580Z,78.60
2018-07-11T19:12:24.477Z,79.20
2018-07-11T19:15:00.895Z,79.30
2018-07-11T19:17:55.540Z,79.50
2018-07-11T19:20:31.947Z,79.80
2018-07-11T19:24:07.278Z,79.80
2018-07-11T19:26:50.241Z,80.30
2018-07-11T19:29:25.805Z,80.60
2018-07-11T19:36:11.098Z,80.90
2018-07-11T19:38:49.673Z,80.80
2018-07-11T19:41:19.669Z,81.80
2018-07-11T19:44:08.389Z,82.00
2018-07-11T19:48:49.919Z,83.50
2018-07-11T19:51:30.211Z,84.50
2018-07-11T19:54:03.772Z,85.60
2018-07-11T19:56:37.266Z,86.70
2018-07-11T19:59:05.587Z,87.40
2018-07-11T20:01:33.834Z,87.50
2018-07-11T20:04:02.127Z,88.00
2018-07-11T20:06:30.403Z,88.20
2018-07-11T20:08:58.777Z,89.70
2018-07-11T20:11:27.072Z,89.50
2018-07-11T20:13:55.391Z,89.60
2018-07-11T20:16:24.278Z,89.90
2018-07-11T20:18:52.558Z,90.30
2018-07-11T20:21:21.471Z,90.70
2018-07-11T20:23:49.765Z,90.70
2018-07-11T20:26:18.921Z,91.10
2018-07-11T20:28:47.125Z,91.40
2018-07-11T20:31:15.487Z,91.50
2018-07-11T20:33:43.661Z,91.70
2018-07-11T20:36:12.118Z,91.90
2018-07-11T20:38:40.844Z,91.90
2018-07-11T20:41:09.502Z,92.40
2018-07-11T20:43:37.690Z,92.50
2018-07-11T20:46:06.885Z,92.70
2018-07-11T20:48:35.822Z,92.80
2018-07-11T20:51:03.999Z,93.00
2018-07-11T20:53:32.219Z,93.60
2018-07-11T20:56:00.370Z,94.00
2018-07-11T20:58:40.006Z,93.80
2018-07-11T21:01:19.335Z,94.30
2018-07-11T21:03:59.620Z,94.20
2018-07-11T21:06:38.793Z,94.10
2018-07-11T21:11:26.982Z,94.50
2018-07-11T21:16:14.050Z,94.80
2018-07-11T21:18:59.330Z,94.80
2018-07-11T21:21:27.535Z,95.60
2018-07-11T21:23:55.778Z,95.70
2018-07-11T21:26:24.015Z,96.00
2018-07-11T21:28:52.428Z,96.40
2018-07-11T21:31:20.603Z,96.80
2018-07-11T21:33:48.768Z,97.20
2018-07-11T21:36:16.935Z,97.40
2018-07-11T21:38:45.113Z,97.40
2018-07-11T21:41:13.788Z,97.50
2018-07-11T21:43:42.576Z,97.50
2018-07-11T21:46:10.782Z,97.70
2018-07-11T21:48:39.024Z,97.50
2018-07-11T21:51:07.230Z,98.00
2018-07-11T21:53:36.266Z,97.80
2018-07-11T21:56:04.439Z,98.00
2018-07-11T21:58:32.646Z,98.50
2018-07-11T22:01:06.161Z,98.70
2018-07-11T22:03:34.314Z,98.90
2018-07-11T22:06:02.505Z,98.90
2018-07-11T22:08:30.686Z,99.20
2018-07-11T22:10:58.939Z,99.40
2018-07-11T22:13:27.102Z,99.50
2018-07-11T22:15:55.281Z,99.90
2018-07-11T22:18:31.012Z,99.90
2018-07-11T22:20:58.389Z,99.90
2018-07-11T22:23:25.652Z,99.90
2018-07-11T22:25:52.820Z,99.90
2018-07-11T22:28:20.000Z,99.90
2018-07-11T22:30:47.190Z,99.90
2018-07-11T22:33:14.374Z,99.90
2018-07-11T22:35:41.616Z,99.90
2018-07-11T22:38:10.795Z,99.90
2018-07-11T22:40:38.240Z,99.90
2018-07-11T22:43:05.597Z,99.90
2018-07-11T22:45:32.861Z,99.90
2018-07-11T22:48:00.031Z,99.90
2018-07-11T22:50:27.478Z,99.90
2018-07-11T22:52:54.675Z,99.90
2018-07-11T22:55:21.950Z,99.90
2018-07-11T22:57:49.251Z,99.90
2018-07-11T23:00:16.572Z,99.90
2018-07-11T23:02:43.763Z,99.90
2018-07-11T23:05:10.943Z,99.90
2018-07-11T23:07:40.472Z,99.90
2018-07-11T23:10:08.059Z,99.90
2018-07-11T23:12:35.222Z,99.90
2018-07-11T23:15:02.410Z,99.90
2018-07-11T23:17:29.614Z,99.90
2018-07-11T23:19:56.762Z,99.90
2018-07-11T23:22:23.968Z,99.90
2018-07-11T23:24:51.150Z,99.90
2018-07-11T23:27:18.363Z,99.90
2018-07-11T23:29:45.541Z,99.90
2018-07-11T23:32:12.719Z,99.90
2018-07-11T23:34:39.924Z,99.90
2018-07-11T23:37:07.134Z,99.90
2018-07-11T23:39:34.326Z,99.90
2018-07-11T23:42:01.508Z,99.90
2018-07-11T23:44:28.730Z,99.90
2018-07-11T23:47:02.134Z,99.90
2018-07-11T23:49:29.308Z,99.90
2018-07-11T23:51:56.495Z,99.90
2018-07-11T23:54:23.682Z,99.90
2018-07-11T23:56:50.985Z,99.90
2018-07-11T23:59:18.192Z,99.90
